sensor_id;sensor_type;location;lat;lon;timestamp;pressure;altitude;pressure_sealevel;temperature
19666;BMP180;9980;51.020;7.772;2023-06-24T00:00:12;98445.00;;;19.60
19666;BMP180;9980;51.020;7.772;2023-06-24T00:02:43;98451.00;;;19.50
19666;BMP180;9980;51.020;7.772;2023-06-24T00:05:12;98441.00;;;19.50
19666;BMP180;9980;51.020;7.772;2023-06-24T00:07:39;98451.00;;;19.50
19666;BMP180;9980;51.020;7.772;2023-06-24T00:10:15;98446.00;;;19.40
19666;BMP180;9980;51.020;7.772;2023-06-24T00:12:45;98446.00;;;19.40
19666;BMP180;9980;51.020;7.772;2023-06-24T00:15:12;98436.00;;;19.40
19666;BMP180;9980;51.020;7.772;2023-06-24T00:17:39;98442.00;;;19.30
19666;BMP180;9980;51.020;7.772;2023-06-24T00:20:07;98448.00;;;19.30
19666;BMP180;9980;51.020;7.772;2023-06-24T00:22:38;98433.00;;;19.30
19666;BMP180;9980;51.020;7.772;2023-06-24T00:25:10;98441.00;;;19.20
19666;BMP180;9980;51.020;7.772;2023-06-24T00:27:37;98425.00;;;19.20
19666;BMP180;9980;51.020;7.772;2023-06-24T00:30:05;98435.00;;;19.20
19666;BMP180;9980;51.020;7.772;2023-06-24T00:32:34;98445.00;;;19.10
19666;BMP180;9980;51.020;7.772;2023-06-24T00:35:01;98426.00;;;19.10
19666;BMP180;9980;51.020;7.772;2023-06-24T00:37:28;98444.00;;;19.10
19666;BMP180;9980;51.020;7.772;2023-06-24T00:39:55;98437.00;;;19.00
19666;BMP180;9980;51.020;7.772;2023-06-24T00:42:22;98446.00;;;19.00
19666;BMP180;9980;51.020;7.772;2023-06-24T00:44:49;98453.00;;;19.00
19666;BMP180;9980;51.020;7.772;2023-06-24T00:47:16;98449.00;;;18.90
19666;BMP180;9980;51.020;7.772;2023-06-24T00:49:44;98452.00;;;18.90
19666;BMP180;9980;51.020;7.772;2023-06-24T00:52:12;98461.00;;;18.90
19666;BMP180;9980;51.020;7.772;2023-06-24T00:54:43;98457.00;;;18.90
19666;BMP180;9980;51.020;7.772;2023-06-24T00:57:12;98458.00;;;18.80
19666;BMP180;9980;51.020;7.772;2023-06-24T00:59:41;98464.00;;;18.80
19666;BMP180;9980;51.020;7.772;2023-06-24T01:02:10;98453.00;;;18.80
19666;BMP180;9980;51.020;7.772;2023-06-24T01:04:38;98448.00;;;18.70
19666;BMP180;9980;51.020;7.772;2023-06-24T01:07:06;98455.00;;;18.70
19666;BMP180;9980;51.020;7.772;2023-06-24T01:09:36;98451.00;;;18.60
19666;BMP180;9980;51.020;7.772;2023-06-24T01:12:03;98452.00;;;18.60
19666;BMP180;9980;51.020;7.772;2023-06-24T01:14:31;98444.00;;;18.60
19666;BMP180;9980;51.020;7.772;2023-06-24T01:17:15;98440.00;;;18.50
19666;BMP180;9980;51.020;7.772;2023-06-24T01:31:54;98445.00;;;18.30
19666;BMP180;9980;51.020;7.772;2023-06-24T01:34:37;98438.00;;;18.20
19666;BMP180;9980;51.020;7.772;2023-06-24T01:37:19;98452.00;;;18.20
19666;BMP180;9980;51.020;7.772;2023-06-24T01:40:12;98446.00;;;18.20
19666;BMP180;9980;51.020;7.772;2023-06-24T01:42:44;98436.00;;;18.20
19666;BMP180;9980;51.020;7.772;2023-06-24T01:45:22;98450.00;;;18.20
19666;BMP180;9980;51.020;7.772;2023-06-24T01:48:00;98439.00;;;18.10
19666;BMP180;9980;51.020;7.772;2023-06-24T01:50:33;98442.00;;;18.10
19666;BMP180;9980;51.020;7.772;2023-06-24T01:53:04;98439.00;;;18.10
19666;BMP180;9980;51.020;7.772;2023-06-24T01:55:34;98431.00;;;18.10
19666;BMP180;9980;51.020;7.772;2023-06-24T01:58:05;98430.00;;;18.00
19666;BMP180;9980;51.020;7.772;2023-06-24T02:00:35;98431.00;;;18.00
19666;BMP180;9980;51.020;7.772;2023-06-24T02:03:05;98433.00;;;18.00
19666;BMP180;9980;51.020;7.772;2023-06-24T02:05:35;98430.00;;;18.00
19666;BMP180;9980;51.020;7.772;2023-06-24T02:08:05;98432.00;;;17.90
19666;BMP180;9980;51.020;7.772;2023-06-24T02:10:33;98433.00;;;17.90
19666;BMP180;9980;51.020;7.772;2023-06-24T02:13:02;98434.00;;;17.90
19666;BMP180;9980;51.020;7.772;2023-06-24T02:15:31;98423.00;;;17.80
19666;BMP180;9980;51.020;7.772;2023-06-24T02:18:01;98419.00;;;17.80
19666;BMP180;9980;51.020;7.772;2023-06-24T02:20:31;98428.00;;;17.80
19666;BMP180;9980;51.020;7.772;2023-06-24T02:22:59;98430.00;;;17.80
19666;BMP180;9980;51.020;7.772;2023-06-24T02:25:27;98439.00;;;17.70
19666;BMP180;9980;51.020;7.772;2023-06-24T02:27:57;98426.00;;;17.70
19666;BMP180;9980;51.020;7.772;2023-06-24T02:30:25;98438.00;;;17.70
19666;BMP180;9980;51.020;7.772;2023-06-24T02:32:52;98444.00;;;17.70
19666;BMP180;9980;51.020;7.772;2023-06-24T02:35:20;98430.00;;;17.60
19666;BMP180;9980;51.020;7.772;2023-06-24T02:37:47;98431.00;;;17.60
19666;BMP180;9980;51.020;7.772;2023-06-24T02:40:16;98438.00;;;17.60
19666;BMP180;9980;51.020;7.772;2023-06-24T02:42:43;98456.00;;;17.60
19666;BMP180;9980;51.020;7.772;2023-06-24T02:45:10;98436.00;;;17.60
19666;BMP180;9980;51.020;7.772;2023-06-24T02:47:38;98435.00;;;17.50
19666;BMP180;9980;51.020;7.772;2023-06-24T02:50:08;98433.00;;;17.50
19666;BMP180;9980;51.020;7.772;2023-06-24T02:52:36;98438.00;;;17.50
19666;BMP180;9980;51.020;7.772;2023-06-24T02:55:07;98446.00;;;17.40
19666;BMP180;9980;51.020;7.772;2023-06-24T02:57:45;98462.00;;;17.40
19666;BMP180;9980;51.020;7.772;2023-06-24T03:00:15;98450.00;;;17.40
19666;BMP180;9980;51.020;7.772;2023-06-24T03:03:22;98455.00;;;17.40
19666;BMP180;9980;51.020;7.772;2023-06-24T03:05:55;98456.00;;;17.30
19666;BMP180;9980;51.020;7.772;2023-06-24T03:08:29;98456.00;;;17.30
19666;BMP180;9980;51.020;7.772;2023-06-24T03:10:57;98466.00;;;17.30
19666;BMP180;9980;51.020;7.772;2023-06-24T03:13:29;98452.00;;;17.30
19666;BMP180;9980;51.020;7.772;2023-06-24T03:16:01;98456.00;;;17.20
19666;BMP180;9980;51.020;7.772;2023-06-24T03:18:32;98464.00;;;17.20
19666;BMP180;9980;51.020;7.772;2023-06-24T03:20:59;98463.00;;;17.20
19666;BMP180;9980;51.020;7.772;2023-06-24T03:23:29;98471.00;;;17.20
19666;BMP180;9980;51.020;7.772;2023-06-24T03:25:57;98455.00;;;17.20
19666;BMP180;9980;51.020;7.772;2023-06-24T03:28:24;98473.00;;;17.20
19666;BMP180;9980;51.020;7.772;2023-06-24T03:31:01;98452.00;;;17.10
19666;BMP180;9980;51.020;7.772;2023-06-24T03:33:29;98445.00;;;17.10
19666;BMP180;9980;51.020;7.772;2023-06-24T03:35:56;98462.00;;;17.10
19666;BMP180;9980;51.020;7.772;2023-06-24T03:38:27;98454.00;;;17.10
19666;BMP180;9980;51.020;7.772;2023-06-24T03:40:56;98447.00;;;17.10
19666;BMP180;9980;51.020;7.772;2023-06-24T03:43:23;98453.00;;;17.10
19666;BMP180;9980;51.020;7.772;2023-06-24T03:45:50;98454.00;;;17.00
19666;BMP180;9980;51.020;7.772;2023-06-24T03:48:17;98453.00;;;17.00
19666;BMP180;9980;51.020;7.772;2023-06-24T03:50:44;98450.00;;;17.00
19666;BMP180;9980;51.020;7.772;2023-06-24T03:53:11;98458.00;;;17.00
19666;BMP180;9980;51.020;7.772;2023-06-24T03:55:38;98462.00;;;17.00
19666;BMP180;9980;51.020;7.772;2023-06-24T03:58:05;98445.00;;;17.00
19666;BMP180;9980;51.020;7.772;2023-06-24T04:00:34;98460.00;;;17.00
19666;BMP180;9980;51.020;7.772;2023-06-24T04:03:06;98449.00;;;17.00
19666;BMP180;9980;51.020;7.772;2023-06-24T04:05:35;98443.00;;;17.00
19666;BMP180;9980;51.020;7.772;2023-06-24T04:08:02;98441.00;;;17.00
19666;BMP180;9980;51.020;7.772;2023-06-24T04:10:33;98461.00;;;17.00
19666;BMP180;9980;51.020;7.772;2023-06-24T04:13:00;98457.00;;;17.00
19666;BMP180;9980;51.020;7.772;2023-06-24T04:15:27;98463.00;;;17.00
19666;BMP180;9980;51.020;7.772;2023-06-24T04:17:54;98462.00;;;17.00
19666;BMP180;9980;51.020;7.772;2023-06-24T04:20:21;98455.00;;;17.10
19666;BMP180;9980;51.020;7.772;2023-06-24T04:22:50;98455.00;;;17.10
19666;BMP180;9980;51.020;7.772;2023-06-24T04:25:17;98446.00;;;17.10
19666;BMP180;9980;51.020;7.772;2023-06-24T04:27:44;98453.00;;;17.10
19666;BMP180;9980;51.020;7.772;2023-06-24T04:30:11;98454.00;;;17.10
19666;BMP180;9980;51.020;7.772;2023-06-24T04:32:39;98459.00;;;17.20
19666;BMP180;9980;51.020;7.772;2023-06-24T04:35:06;98462.00;;;17.20
19666;BMP180;9980;51.020;7.772;2023-06-24T04:37:35;98472.00;;;17.30
19666;BMP180;9980;51.020;7.772;2023-06-24T04:40:02;98473.00;;;17.30
19666;BMP180;9980;51.020;7.772;2023-06-24T04:42:30;98477.00;;;17.40
19666;BMP180;9980;51.020;7.772;2023-06-24T04:44:57;98466.00;;;17.50
19666;BMP180;9980;51.020;7.772;2023-06-24T04:47:24;98463.00;;;17.60
19666;BMP180;9980;51.020;7.772;2023-06-24T04:49:51;98473.00;;;17.70
19666;BMP180;9980;51.020;7.772;2023-06-24T04:52:18;98468.00;;;17.80
19666;BMP180;9980;51.020;7.772;2023-06-24T04:54:45;98461.00;;;17.90
19666;BMP180;9980;51.020;7.772;2023-06-24T04:57:26;98467.00;;;18.00
19666;BMP180;9980;51.020;7.772;2023-06-24T04:59:53;98467.00;;;18.20
19666;BMP180;9980;51.020;7.772;2023-06-24T05:02:20;98456.00;;;18.30
19666;BMP180;9980;51.020;7.772;2023-06-24T05:04:47;98471.00;;;18.40
19666;BMP180;9980;51.020;7.772;2023-06-24T05:07:15;98472.00;;;18.50
19666;BMP180;9980;51.020;7.772;2023-06-24T05:09:42;98475.00;;;18.70
19666;BMP180;9980;51.020;7.772;2023-06-24T05:12:10;98472.00;;;18.80
19666;BMP180;9980;51.020;7.772;2023-06-24T05:14:37;98474.00;;;18.90
19666;BMP180;9980;51.020;7.772;2023-06-24T05:17:05;98464.00;;;19.00
19666;BMP180;9980;51.020;7.772;2023-06-24T05:19:32;98473.00;;;19.10
19666;BMP180;9980;51.020;7.772;2023-06-24T05:21:59;98470.00;;;19.20
19666;BMP180;9980;51.020;7.772;2023-06-24T05:24:26;98465.00;;;19.30
19666;BMP180;9980;51.020;7.772;2023-06-24T05:26:53;98456.00;;;19.50
19666;BMP180;9980;51.020;7.772;2023-06-24T05:29:20;98453.00;;;19.50
19666;BMP180;9980;51.020;7.772;2023-06-24T05:31:47;98453.00;;;19.60
19666;BMP180;9980;51.020;7.772;2023-06-24T05:34:14;98459.00;;;19.70
19666;BMP180;9980;51.020;7.772;2023-06-24T05:36:41;98461.00;;;19.80
19666;BMP180;9980;51.020;7.772;2023-06-24T05:39:08;98449.00;;;19.90
19666;BMP180;9980;51.020;7.772;2023-06-24T05:41:36;98455.00;;;20.00
19666;BMP180;9980;51.020;7.772;2023-06-24T05:44:08;98464.00;;;20.00
19666;BMP180;9980;51.020;7.772;2023-06-24T05:46:38;98459.00;;;20.10
19666;BMP180;9980;51.020;7.772;2023-06-24T05:49:05;98456.00;;;20.20
19666;BMP180;9980;51.020;7.772;2023-06-24T05:51:32;98452.00;;;20.30
19666;BMP180;9980;51.020;7.772;2023-06-24T05:53:59;98452.00;;;20.40
19666;BMP180;9980;51.020;7.772;2023-06-24T05:56:26;98463.00;;;20.40
19666;BMP180;9980;51.020;7.772;2023-06-24T05:58:53;98455.00;;;20.50
19666;BMP180;9980;51.020;7.772;2023-06-24T06:01:20;98456.00;;;20.60
19666;BMP180;9980;51.020;7.772;2023-06-24T06:03:47;98472.00;;;20.70
19666;BMP180;9980;51.020;7.772;2023-06-24T06:06:14;98466.00;;;20.80
19666;BMP180;9980;51.020;7.772;2023-06-24T06:08:41;98476.00;;;20.90
19666;BMP180;9980;51.020;7.772;2023-06-24T06:11:08;98456.00;;;21.00
19666;BMP180;9980;51.020;7.772;2023-06-24T06:13:35;98460.00;;;21.10
19666;BMP180;9980;51.020;7.772;2023-06-24T06:16:02;98464.00;;;21.10
19666;BMP180;9980;51.020;7.772;2023-06-24T06:18:29;98470.00;;;21.20
19666;BMP180;9980;51.020;7.772;2023-06-24T06:20:56;98473.00;;;21.30
19666;BMP180;9980;51.020;7.772;2023-06-24T06:23:23;98461.00;;;21.40
19666;BMP180;9980;51.020;7.772;2023-06-24T06:25:51;98455.00;;;21.50
19666;BMP180;9980;51.020;7.772;2023-06-24T06:28:18;98461.00;;;21.60
19666;BMP180;9980;51.020;7.772;2023-06-24T06:30:46;98460.00;;;21.70
19666;BMP180;9980;51.020;7.772;2023-06-24T06:33:13;98448.00;;;21.80
19666;BMP180;9980;51.020;7.772;2023-06-24T06:35:40;98461.00;;;21.90
19666;BMP180;9980;51.020;7.772;2023-06-24T06:38:07;98463.00;;;22.00
19666;BMP180;9980;51.020;7.772;2023-06-24T06:40:34;98459.00;;;22.10
19666;BMP180;9980;51.020;7.772;2023-06-24T06:43:02;98463.00;;;22.10
19666;BMP180;9980;51.020;7.772;2023-06-24T06:45:29;98464.00;;;22.30
19666;BMP180;9980;51.020;7.772;2023-06-24T06:47:58;98458.00;;;22.40
19666;BMP180;9980;51.020;7.772;2023-06-24T06:50:25;98458.00;;;22.50
19666;BMP180;9980;51.020;7.772;2023-06-24T06:52:52;98463.00;;;22.60
19666;BMP180;9980;51.020;7.772;2023-06-24T06:55:19;98457.00;;;22.70
19666;BMP180;9980;51.020;7.772;2023-06-24T06:57:46;98474.00;;;22.80
19666;BMP180;9980;51.020;7.772;2023-06-24T07:00:13;98455.00;;;23.00
19666;BMP180;9980;51.020;7.772;2023-06-24T07:02:41;98458.00;;;23.10
19666;BMP180;9980;51.020;7.772;2023-06-24T07:05:08;98467.00;;;23.20
19666;BMP180;9980;51.020;7.772;2023-06-24T07:07:37;98474.00;;;23.30
19666;BMP180;9980;51.020;7.772;2023-06-24T07:10:06;98452.00;;;23.50
19666;BMP180;9980;51.020;7.772;2023-06-24T07:12:33;98467.00;;;23.60
19666;BMP180;9980;51.020;7.772;2023-06-24T07:15:00;98477.00;;;23.70
19666;BMP180;9980;51.020;7.772;2023-06-24T07:17:27;98463.00;;;23.90
19666;BMP180;9980;51.020;7.772;2023-06-24T07:19:54;98470.00;;;24.00
19666;BMP180;9980;51.020;7.772;2023-06-24T07:22:21;98455.00;;;24.20
19666;BMP180;9980;51.020;7.772;2023-06-24T07:24:47;98470.00;;;24.30
19666;BMP180;9980;51.020;7.772;2023-06-24T07:27:14;98472.00;;;24.50
19666;BMP180;9980;51.020;7.772;2023-06-24T07:29:41;98458.00;;;24.60
19666;BMP180;9980;51.020;7.772;2023-06-24T07:32:08;98472.00;;;24.80
19666;BMP180;9980;51.020;7.772;2023-06-24T07:34:35;98474.00;;;24.90
19666;BMP180;9980;51.020;7.772;2023-06-24T07:37:02;98471.00;;;25.10
19666;BMP180;9980;51.020;7.772;2023-06-24T07:39:45;98473.00;;;25.20
19666;BMP180;9980;51.020;7.772;2023-06-24T07:42:12;98476.00;;;25.30
19666;BMP180;9980;51.020;7.772;2023-06-24T07:44:41;98477.00;;;25.50
19666;BMP180;9980;51.020;7.772;2023-06-24T07:47:08;98477.00;;;25.60
19666;BMP180;9980;51.020;7.772;2023-06-24T07:49:35;98480.00;;;25.80
19666;BMP180;9980;51.020;7.772;2023-06-24T07:52:02;98476.00;;;25.90
19666;BMP180;9980;51.020;7.772;2023-06-24T07:54:30;98475.00;;;26.00
19666;BMP180;9980;51.020;7.772;2023-06-24T07:56:57;98468.00;;;26.10
19666;BMP180;9980;51.020;7.772;2023-06-24T07:59:24;98463.00;;;26.20
19666;BMP180;9980;51.020;7.772;2023-06-24T08:01:51;98474.00;;;26.30
19666;BMP180;9980;51.020;7.772;2023-06-24T08:04:18;98472.00;;;26.50
19666;BMP180;9980;51.020;7.772;2023-06-24T08:06:45;98477.00;;;26.50
19666;BMP180;9980;51.020;7.772;2023-06-24T08:09:12;98470.00;;;26.60
19666;BMP180;9980;51.020;7.772;2023-06-24T08:11:39;98472.00;;;26.80
19666;BMP180;9980;51.020;7.772;2023-06-24T08:14:06;98467.00;;;26.80
19666;BMP180;9980;51.020;7.772;2023-06-24T08:16:33;98458.00;;;27.00
19666;BMP180;9980;51.020;7.772;2023-06-24T08:19:00;98459.00;;;27.10
19666;BMP180;9980;51.020;7.772;2023-06-24T08:21:27;98463.00;;;27.20
19666;BMP180;9980;51.020;7.772;2023-06-24T08:23:56;98457.00;;;27.30
19666;BMP180;9980;51.020;7.772;2023-06-24T08:26:23;98469.00;;;27.40
19666;BMP180;9980;51.020;7.772;2023-06-24T08:28:50;98468.00;;;27.50
19666;BMP180;9980;51.020;7.772;2023-06-24T08:31:17;98469.00;;;27.60
19666;BMP180;9980;51.020;7.772;2023-06-24T08:33:45;98447.00;;;27.70
19666;BMP180;9980;51.020;7.772;2023-06-24T08:36:14;98450.00;;;27.80
19666;BMP180;9980;51.020;7.772;2023-06-24T08:38:41;98459.00;;;28.00
19666;BMP180;9980;51.020;7.772;2023-06-24T08:41:08;98454.00;;;28.10
19666;BMP180;9980;51.020;7.772;2023-06-24T08:43:35;98453.00;;;28.20
19666;BMP180;9980;51.020;7.772;2023-06-24T08:46:02;98453.00;;;28.30
19666;BMP180;9980;51.020;7.772;2023-06-24T08:48:30;98451.00;;;28.30
19666;BMP180;9980;51.020;7.772;2023-06-24T08:51:00;98452.00;;;28.30
19666;BMP180;9980;51.020;7.772;2023-06-24T08:53:28;98451.00;;;28.40
19666;BMP180;9980;51.020;7.772;2023-06-24T08:55:57;98439.00;;;28.40
19666;BMP180;9980;51.020;7.772;2023-06-24T08:58:24;98438.00;;;28.50
19666;BMP180;9980;51.020;7.772;2023-06-24T09:00:52;98442.00;;;28.50
19666;BMP180;9980;51.020;7.772;2023-06-24T09:03:19;98455.00;;;28.50
19666;BMP180;9980;51.020;7.772;2023-06-24T09:05:47;98455.00;;;28.50
19666;BMP180;9980;51.020;7.772;2023-06-24T09:08:15;98459.00;;;28.50
19666;BMP180;9980;51.020;7.772;2023-06-24T09:10:45;98445.00;;;28.60
19666;BMP180;9980;51.020;7.772;2023-06-24T09:13:18;98451.00;;;28.60
19666;BMP180;9980;51.020;7.772;2023-06-24T09:15:45;98451.00;;;28.60
19666;BMP180;9980;51.020;7.772;2023-06-24T09:18:13;98463.00;;;28.70
19666;BMP180;9980;51.020;7.772;2023-06-24T09:20:45;98450.00;;;28.60
19666;BMP180;9980;51.020;7.772;2023-06-24T09:23:12;98456.00;;;28.60
19666;BMP180;9980;51.020;7.772;2023-06-24T09:25:39;98455.00;;;28.60
19666;BMP180;9980;51.020;7.772;2023-06-24T09:28:07;98451.00;;;28.60
19666;BMP180;9980;51.020;7.772;2023-06-24T09:30:34;98449.00;;;28.60
19666;BMP180;9980;51.020;7.772;2023-06-24T09:33:01;98430.00;;;28.60
19666;BMP180;9980;51.020;7.772;2023-06-24T09:35:28;98450.00;;;28.60
19666;BMP180;9980;51.020;7.772;2023-06-24T09:37:56;98441.00;;;28.60
19666;BMP180;9980;51.020;7.772;2023-06-24T09:40:24;98442.00;;;28.60
19666;BMP180;9980;51.020;7.772;2023-06-24T09:42:57;98431.00;;;28.60
19666;BMP180;9980;51.020;7.772;2023-06-24T09:45:29;98436.00;;;28.60
19666;BMP180;9980;51.020;7.772;2023-06-24T09:47:57;98421.00;;;28.60
19666;BMP180;9980;51.020;7.772;2023-06-24T09:50:25;98441.00;;;28.70
19666;BMP180;9980;51.020;7.772;2023-06-24T09:52:53;98440.00;;;28.80
19666;BMP180;9980;51.020;7.772;2023-06-24T09:55:22;98422.00;;;28.90
19666;BMP180;9980;51.020;7.772;2023-06-24T09:57:53;98436.00;;;29.00
19666;BMP180;9980;51.020;7.772;2023-06-24T10:00:20;98416.00;;;29.20
19666;BMP180;9980;51.020;7.772;2023-06-24T10:02:49;98423.00;;;29.30
19666;BMP180;9980;51.020;7.772;2023-06-24T10:05:16;98425.00;;;29.50
19666;BMP180;9980;51.020;7.772;2023-06-24T10:07:44;98426.00;;;29.60
19666;BMP180;9980;51.020;7.772;2023-06-24T10:10:12;98412.00;;;29.80
19666;BMP180;9980;51.020;7.772;2023-06-24T10:12:40;98425.00;;;29.90
19666;BMP180;9980;51.020;7.772;2023-06-24T10:15:07;98415.00;;;30.00
19666;BMP180;9980;51.020;7.772;2023-06-24T10:17:35;98418.00;;;30.10
19666;BMP180;9980;51.020;7.772;2023-06-24T10:20:06;98420.00;;;30.20
19666;BMP180;9980;51.020;7.772;2023-06-24T10:22:33;98416.00;;;30.20
19666;BMP180;9980;51.020;7.772;2023-06-24T10:25:02;98408.00;;;30.30
19666;BMP180;9980;51.020;7.772;2023-06-24T10:27:39;98408.00;;;30.40
19666;BMP180;9980;51.020;7.772;2023-06-24T10:30:07;98406.00;;;30.50
19666;BMP180;9980;51.020;7.772;2023-06-24T10:32:42;98405.00;;;30.60
19666;BMP180;9980;51.020;7.772;2023-06-24T10:35:28;98408.00;;;30.50
19666;BMP180;9980;51.020;7.772;2023-06-24T10:38:01;98403.00;;;30.60
19666;BMP180;9980;51.020;7.772;2023-06-24T10:40:43;98400.00;;;30.50
19666;BMP180;9980;51.020;7.772;2023-06-24T10:43:28;98407.00;;;30.60
19666;BMP180;9980;51.020;7.772;2023-06-24T10:45:58;98403.00;;;30.60
19666;BMP180;9980;51.020;7.772;2023-06-24T10:48:26;98397.00;;;30.60
19666;BMP180;9980;51.020;7.772;2023-06-24T10:50:53;98387.00;;;30.60
19666;BMP180;9980;51.020;7.772;2023-06-24T10:53:21;98384.00;;;30.50
19666;BMP180;9980;51.020;7.772;2023-06-24T10:55:48;98393.00;;;30.60
19666;BMP180;9980;51.020;7.772;2023-06-24T10:58:16;98381.00;;;30.60
19666;BMP180;9980;51.020;7.772;2023-06-24T11:00:45;98379.00;;;30.60
19666;BMP180;9980;51.020;7.772;2023-06-24T11:03:15;98392.00;;;30.60
19666;BMP180;9980;51.020;7.772;2023-06-24T11:05:45;98373.00;;;30.50
19666;BMP180;9980;51.020;7.772;2023-06-24T11:08:13;98367.00;;;30.50
19666;BMP180;9980;51.020;7.772;2023-06-24T11:10:48;98378.00;;;30.50
19666;BMP180;9980;51.020;7.772;2023-06-24T11:13:15;98366.00;;;30.60
19666;BMP180;9980;51.020;7.772;2023-06-24T11:15:42;98371.00;;;30.70
19666;BMP180;9980;51.020;7.772;2023-06-24T11:18:10;98372.00;;;30.70
19666;BMP180;9980;51.020;7.772;2023-06-24T11:20:40;98364.00;;;30.80
19666;BMP180;9980;51.020;7.772;2023-06-24T11:23:09;98351.00;;;30.90
19666;BMP180;9980;51.020;7.772;2023-06-24T11:25:42;98353.00;;;31.00
19666;BMP180;9980;51.020;7.772;2023-06-24T11:28:17;98345.00;;;31.00
19666;BMP180;9980;51.020;7.772;2023-06-24T11:30:49;98354.00;;;31.20
19666;BMP180;9980;51.020;7.772;2023-06-24T11:33:29;98357.00;;;31.30
19666;BMP180;9980;51.020;7.772;2023-06-24T11:35:56;98351.00;;;31.40
19666;BMP180;9980;51.020;7.772;2023-06-24T11:38:23;98349.00;;;31.50
19666;BMP180;9980;51.020;7.772;2023-06-24T11:40:51;98345.00;;;31.60
19666;BMP180;9980;51.020;7.772;2023-06-24T11:43:17;98346.00;;;31.60
19666;BMP180;9980;51.020;7.772;2023-06-24T11:45:48;98350.00;;;31.70
19666;BMP180;9980;51.020;7.772;2023-06-24T11:48:15;98335.00;;;31.80
19666;BMP180;9980;51.020;7.772;2023-06-24T11:50:42;98334.00;;;31.90
19666;BMP180;9980;51.020;7.772;2023-06-24T11:53:09;98340.00;;;32.00
19666;BMP180;9980;51.020;7.772;2023-06-24T11:55:36;98340.00;;;32.10
19666;BMP180;9980;51.020;7.772;2023-06-24T11:58:04;98336.00;;;32.10
19666;BMP180;9980;51.020;7.772;2023-06-24T12:00:39;98328.00;;;32.00
19666;BMP180;9980;51.020;7.772;2023-06-24T12:03:11;98325.00;;;32.00
19666;BMP180;9980;51.020;7.772;2023-06-24T12:05:40;98318.00;;;32.00
19666;BMP180;9980;51.020;7.772;2023-06-24T12:08:13;98330.00;;;32.10
19666;BMP180;9980;51.020;7.772;2023-06-24T12:10:44;98332.00;;;32.10
19666;BMP180;9980;51.020;7.772;2023-06-24T12:13:11;98325.00;;;32.20
19666;BMP180;9980;51.020;7.772;2023-06-24T12:15:39;98314.00;;;32.30
19666;BMP180;9980;51.020;7.772;2023-06-24T12:18:06;98315.00;;;32.30
19666;BMP180;9980;51.020;7.772;2023-06-24T12:20:33;98316.00;;;32.40
19666;BMP180;9980;51.020;7.772;2023-06-24T12:23:04;98310.00;;;32.40
19666;BMP180;9980;51.020;7.772;2023-06-24T12:25:31;98314.00;;;32.50
19666;BMP180;9980;51.020;7.772;2023-06-24T12:27:58;98310.00;;;32.50
19666;BMP180;9980;51.020;7.772;2023-06-24T12:30:27;98320.00;;;32.60
19666;BMP180;9980;51.020;7.772;2023-06-24T12:32:55;98310.00;;;32.60
19666;BMP180;9980;51.020;7.772;2023-06-24T12:35:23;98314.00;;;32.70
19666;BMP180;9980;51.020;7.772;2023-06-24T12:37:53;98303.00;;;32.70
19666;BMP180;9980;51.020;7.772;2023-06-24T12:40:21;98309.00;;;32.80
19666;BMP180;9980;51.020;7.772;2023-06-24T12:42:48;98307.00;;;32.80
19666;BMP180;9980;51.020;7.772;2023-06-24T12:45:15;98300.00;;;32.80
19666;BMP180;9980;51.020;7.772;2023-06-24T12:47:42;98299.00;;;32.90
19666;BMP180;9980;51.020;7.772;2023-06-24T12:50:09;98305.00;;;32.90
19666;BMP180;9980;51.020;7.772;2023-06-24T12:52:37;98304.00;;;32.90
19666;BMP180;9980;51.020;7.772;2023-06-24T12:55:06;98301.00;;;33.00
19666;BMP180;9980;51.020;7.772;2023-06-24T12:57:35;98308.00;;;33.00
19666;BMP180;9980;51.020;7.772;2023-06-24T13:00:04;98308.00;;;33.00
19666;BMP180;9980;51.020;7.772;2023-06-24T13:02:33;98296.00;;;33.10
19666;BMP180;9980;51.020;7.772;2023-06-24T13:05:00;98308.00;;;33.10
19666;BMP180;9980;51.020;7.772;2023-06-24T13:07:27;98303.00;;;33.20
19666;BMP180;9980;51.020;7.772;2023-06-24T13:09:54;98297.00;;;33.20
19666;BMP180;9980;51.020;7.772;2023-06-24T13:12:21;98309.00;;;33.30
19666;BMP180;9980;51.020;7.772;2023-06-24T13:14:48;98303.00;;;33.30
19666;BMP180;9980;51.020;7.772;2023-06-24T13:17:15;98302.00;;;33.30
19666;BMP180;9980;51.020;7.772;2023-06-24T13:19:42;98303.00;;;33.30
19666;BMP180;9980;51.020;7.772;2023-06-24T13:22:09;98288.00;;;33.30
19666;BMP180;9980;51.020;7.772;2023-06-24T13:24:36;98293.00;;;33.30
19666;BMP180;9980;51.020;7.772;2023-06-24T13:27:03;98299.00;;;33.40
19666;BMP180;9980;51.020;7.772;2023-06-24T13:29:30;98292.00;;;33.40
19666;BMP180;9980;51.020;7.772;2023-06-24T13:31:58;98291.00;;;33.40
19666;BMP180;9980;51.020;7.772;2023-06-24T13:34:25;98304.00;;;33.50
19666;BMP180;9980;51.020;7.772;2023-06-24T13:36:52;98294.00;;;33.50
19666;BMP180;9980;51.020;7.772;2023-06-24T13:39:19;98293.00;;;33.60
19666;BMP180;9980;51.020;7.772;2023-06-24T13:41:49;98280.00;;;33.60
19666;BMP180;9980;51.020;7.772;2023-06-24T13:44:16;98291.00;;;33.70
19666;BMP180;9980;51.020;7.772;2023-06-24T13:46:43;98282.00;;;33.70
19666;BMP180;9980;51.020;7.772;2023-06-24T13:49:10;98281.00;;;33.70
19666;BMP180;9980;51.020;7.772;2023-06-24T13:51:39;98285.00;;;33.80
19666;BMP180;9980;51.020;7.772;2023-06-24T13:54:05;98281.00;;;33.80
19666;BMP180;9980;51.020;7.772;2023-06-24T13:56:32;98280.00;;;33.90
19666;BMP180;9980;51.020;7.772;2023-06-24T13:58:59;98270.00;;;33.90
19666;BMP180;9980;51.020;7.772;2023-06-24T14:01:26;98274.00;;;33.90
19666;BMP180;9980;51.020;7.772;2023-06-24T14:03:56;98281.00;;;34.00
19666;BMP180;9980;51.020;7.772;2023-06-24T14:06:24;98260.00;;;34.00
19666;BMP180;9980;51.020;7.772;2023-06-24T14:08:51;98267.00;;;34.10
19666;BMP180;9980;51.020;7.772;2023-06-24T14:11:18;98256.00;;;34.10
19666;BMP180;9980;51.020;7.772;2023-06-24T14:13:45;98256.00;;;34.10
19666;BMP180;9980;51.020;7.772;2023-06-24T14:16:13;98260.00;;;34.10
19666;BMP180;9980;51.020;7.772;2023-06-24T14:18:40;98247.00;;;34.10
19666;BMP180;9980;51.020;7.772;2023-06-24T14:21:07;98248.00;;;34.10
19666;BMP180;9980;51.020;7.772;2023-06-24T14:23:35;98256.00;;;34.10
19666;BMP180;9980;51.020;7.772;2023-06-24T14:26:03;98252.00;;;34.10
19666;BMP180;9980;51.020;7.772;2023-06-24T14:28:30;98249.00;;;34.20
19666;BMP180;9980;51.020;7.772;2023-06-24T14:30:57;98261.00;;;34.20
19666;BMP180;9980;51.020;7.772;2023-06-24T14:33:24;98259.00;;;34.20
19666;BMP180;9980;51.020;7.772;2023-06-24T14:35:51;98257.00;;;34.20
19666;BMP180;9980;51.020;7.772;2023-06-24T14:38:18;98251.00;;;34.20
19666;BMP180;9980;51.020;7.772;2023-06-24T14:40:46;98249.00;;;34.20